Time;durP1;ratioP1;P1;durP2;ratioP2;P2;SDS_P1;SDS_P2;PMS_P1;PMS_P2;Temp;Humidity;BMP_temperature;BMP_pressure;BME280_temperature;BME280_humidity;BME280_pressure;Samples;Min_cycle;Max_cycle;Signal;HPM_P1;HPM_P2
2023/12/13 00:00:28;;;;;;;10.27;4.50;;;;;;;;;;5017707;27;99083;-64
2023/12/13 00:02:54;;;;;;;8.32;4.13;;;;;;;;;;5018260;27;100545;-65
2023/12/13 00:05:21;;;;;;;7.80;3.60;;;;;;;;;;5017676;27;98806;-64
2023/12/13 00:07:47;;;;;;;9.57;4.25;;;;;;;;;;5021398;28;99468;-65
2023/12/13 00:10:14;;;;;;;12.55;4.18;;;;;;;;;;5015374;28;99476;-64
2023/12/13 00:12:41;;;;;;;6.65;4.07;;;;;;;;;;5020392;28;98103;-64
2023/12/13 00:15:08;;;;;;;7.63;4.25;;;;;;;;;;5020465;27;99452;-64
2023/12/13 00:17:34;;;;;;;8.38;4.50;;;;;;;;;;5020221;27;99505;-64
2023/12/13 00:20:05;;;;;;;7.55;4.00;;;;;;;;;;5021247;28;99440;-64
2023/12/13 00:22:32;;;;;;;8.00;4.22;;;;;;;;;;5018954;28;99464;-64
2023/12/13 00:24:58;;;;;;;6.18;3.78;;;;;;;;;;5016034;28;98695;-64
2023/12/13 00:27:25;;;;;;;9.07;4.50;;;;;;;;;;5017774;27;99107;-64
2023/12/13 00:29:51;;;;;;;7.18;4.18;;;;;;;;;;5019206;28;100606;-64
2023/12/13 00:32:17;;;;;;;10.48;4.53;;;;;;;;;;5019166;27;101118;-64
2023/12/13 00:34:44;;;;;;;9.05;4.22;;;;;;;;;;5019427;28;100349;-64
2023/12/13 00:37:11;;;;;;;6.13;3.70;;;;;;;;;;5016179;28;98933;-64
2023/12/13 00:39:37;;;;;;;9.27;3.97;;;;;;;;;;5020238;28;98616;-64
2023/12/13 00:42:03;;;;;;;9.68;4.10;;;;;;;;;;5021018;28;100256;-64
2023/12/13 00:44:30;;;;;;;9.73;4.10;;;;;;;;;;5017161;28;99417;-64
2023/12/13 00:46:56;;;;;;;11.77;4.32;;;;;;;;;;5018795;27;99940;-64
2023/12/13 00:49:23;;;;;;;8.75;3.83;;;;;;;;;;5023232;27;99497;-64
2023/12/13 00:51:49;;;;;;;8.88;4.57;;;;;;;;;;5018325;27;98643;-64
2023/12/13 00:54:15;;;;;;;5.75;4.43;;;;;;;;;;5019870;28;99066;-64
2023/12/13 00:56:42;;;;;;;12.05;4.68;;;;;;;;;;5016188;27;98674;-64
2023/12/13 00:59:08;;;;;;;11.18;5.32;;;;;;;;;;5021005;28;98634;-64
2023/12/13 01:01:41;;;;;;;9.95;5.50;;;;;;;;;;5020499;27;99178;-64
2023/12/13 01:04:07;;;;;;;11.52;5.32;;;;;;;;;;5019731;27;98986;-64
2023/12/13 01:06:34;;;;;;;8.80;4.60;;;;;;;;;;5010416;28;100459;-64
2023/12/13 01:09:00;;;;;;;8.05;4.53;;;;;;;;;;5020095;27;100344;-64
2023/12/13 01:11:26;;;;;;;15.27;5.10;;;;;;;;;;5013385;28;98517;-64
2023/12/13 01:13:52;;;;;;;8.57;4.25;;;;;;;;;;5011913;27;99247;-64
2023/12/13 01:16:19;;;;;;;11.02;4.88;;;;;;;;;;5015367;28;101543;-64
2023/12/13 01:18:45;;;;;;;7.68;4.63;;;;;;;;;;5015107;28;98671;-64
2023/12/13 01:21:12;;;;;;;7.57;5.03;;;;;;;;;;5016602;27;99165;-64
2023/12/13 01:23:38;;;;;;;17.60;5.13;;;;;;;;;;5018867;27;99599;-64
2023/12/13 01:26:05;;;;;;;9.63;5.07;;;;;;;;;;5017614;27;99151;-64
2023/12/13 01:28:31;;;;;;;11.90;5.43;;;;;;;;;;5015631;28;99673;-64
2023/12/13 01:30:58;;;;;;;10.15;4.97;;;;;;;;;;5016857;28;98539;-64
2023/12/13 01:33:24;;;;;;;11.00;5.47;;;;;;;;;;5014656;27;99502;-64
2023/12/13 01:35:51;;;;;;;13.52;6.07;;;;;;;;;;5014006;28;100123;-64
2023/12/13 01:38:17;;;;;;;13.85;5.80;;;;;;;;;;5019208;28;98542;-64
2023/12/13 01:40:50;;;;;;;12.10;5.88;;;;;;;;;;5016046;27;99495;-64
2023/12/13 01:43:36;;;;;;;14.43;5.63;;;;;;;;;;5014253;28;101247;-64
2023/12/13 01:46:03;;;;;;;10.35;5.13;;;;;;;;;;5016815;27;99607;-64
2023/12/13 01:48:30;;;;;;;14.55;5.22;;;;;;;;;;5019909;27;99491;-64
2023/12/13 01:50:57;;;;;;;15.45;5.68;;;;;;;;;;5006468;28;97776;-64
2023/12/13 01:53:24;;;;;;;15.25;6.20;;;;;;;;;;5010432;28;98566;-65
2023/12/13 01:55:51;;;;;;;8.23;5.22;;;;;;;;;;5017470;28;99446;-65
2023/12/13 01:58:18;;;;;;;10.55;5.07;;;;;;;;;;5016778;28;99261;-65
2023/12/13 02:00:45;;;;;;;14.10;5.65;;;;;;;;;;5017924;28;99967;-64
2023/12/13 02:03:12;;;;;;;14.85;5.47;;;;;;;;;;5013852;28;99478;-64
2023/12/13 02:05:40;;;;;;;13.10;5.45;;;;;;;;;;5016663;28;98609;-65
2023/12/13 02:08:07;;;;;;;11.82;4.57;;;;;;;;;;5014110;28;99354;-64
2023/12/13 02:10:33;;;;;;;9.13;5.10;;;;;;;;;;5015912;27;98672;-64
2023/12/13 02:13:00;;;;;;;13.52;4.75;;;;;;;;;;5019383;28;99304;-64
2023/12/13 02:15:26;;;;;;;7.07;4.50;;;;;;;;;;5013473;28;101728;-64
2023/12/13 02:17:53;;;;;;;9.95;4.68;;;;;;;;;;5015232;28;98834;-64
2023/12/13 02:20:20;;;;;;;21.88;6.35;;;;;;;;;;5016575;28;99165;-64
2023/12/13 02:22:47;;;;;;;9.95;5.05;;;;;;;;;;5010371;28;100220;-64
2023/12/13 02:25:19;;;;;;;12.88;4.72;;;;;;;;;;5016638;27;98717;-64
2023/12/13 02:27:45;;;;;;;7.65;4.22;;;;;;;;;;5019712;28;99303;-64
2023/12/13 02:30:12;;;;;;;15.00;4.97;;;;;;;;;;5023609;28;99486;-64
2023/12/13 02:32:39;;;;;;;7.88;4.93;;;;;;;;;;5019364;28;100157;-64
2023/12/13 02:35:06;;;;;;;12.95;4.88;;;;;;;;;;5016844;28;99465;-64
2023/12/13 02:37:32;;;;;;;12.05;4.70;;;;;;;;;;5022020;28;98658;-64
2023/12/13 02:39:59;;;;;;;7.72;3.58;;;;;;;;;;5017088;28;99381;-64
2023/12/13 02:42:25;;;;;;;9.88;4.35;;;;;;;;;;5019164;28;100402;-64
2023/12/13 02:44:52;;;;;;;11.25;4.45;;;;;;;;;;5014634;28;99200;-64
2023/12/13 02:47:18;;;;;;;5.60;3.55;;;;;;;;;;5020773;28;99823;-64
2023/12/13 02:49:45;;;;;;;12.65;4.47;;;;;;;;;;5017769;27;99919;-64
2023/12/13 02:52:11;;;;;;;8.80;4.03;;;;;;;;;;5021050;28;98572;-64
2023/12/13 02:54:38;;;;;;;7.70;4.13;;;;;;;;;;5018538;28;99633;-64
2023/12/13 02:57:04;;;;;;;9.25;4.25;;;;;;;;;;5010047;27;100202;-64
2023/12/13 02:59:31;;;;;;;7.20;3.80;;;;;;;;;;5024661;28;99192;-64
2023/12/13 03:01:57;;;;;;;6.22;3.85;;;;;;;;;;5013677;28;99482;-64
2023/12/13 03:04:24;;;;;;;8.38;3.72;;;;;;;;;;5011668;27;100853;-64
2023/12/13 03:06:50;;;;;;;5.45;3.92;;;;;;;;;;5019045;28;98678;-65
2023/12/13 03:09:16;;;;;;;6.60;3.60;;;;;;;;;;5021386;28;100595;-64
2023/12/13 03:11:43;;;;;;;13.68;4.57;;;;;;;;;;5021869;27;99314;-64
2023/12/13 03:14:09;;;;;;;8.13;4.43;;;;;;;;;;5009882;27;101069;-64
2023/12/13 03:16:36;;;;;;;6.75;3.78;;;;;;;;;;5022494;27;98498;-64
2023/12/13 03:19:02;;;;;;;6.38;3.75;;;;;;;;;;5018702;28;99102;-64
2023/12/13 03:21:28;;;;;;;9.35;4.38;;;;;;;;;;5013767;27;98815;-64
2023/12/13 03:23:55;;;;;;;10.77;4.05;;;;;;;;;;5022026;28;98560;-64
2023/12/13 03:26:24;;;;;;;7.97;4.18;;;;;;;;;;5016575;28;99495;-64
2023/12/13 03:28:50;;;;;;;9.43;4.38;;;;;;;;;;5017526;27;98733;-64
2023/12/13 03:31:17;;;;;;;8.73;4.28;;;;;;;;;;5009998;28;98506;-64
2023/12/13 03:33:44;;;;;;;8.30;4.10;;;;;;;;;;5021869;28;98907;-64
2023/12/13 03:36:14;;;;;;;6.07;4.22;;;;;;;;;;5020114;27;99355;-64
2023/12/13 03:38:41;;;;;;;;;;;;;;;;;;5020128;28;99907;-64
2023/12/13 03:41:07;;;;;;;12.68;4.65;;;;;;;;;;5020635;27;128232;-64
2023/12/13 03:43:33;;;;;;;15.32;5.20;;;;;;;;;;5016913;28;98632;-64
2023/12/13 03:46:00;;;;;;;10.50;5.10;;;;;;;;;;5017467;28;98990;-64
2023/12/13 03:48:26;;;;;;;14.30;5.78;;;;;;;;;;5014294;28;99443;-64
2023/12/13 03:50:53;;;;;;;9.13;5.78;;;;;;;;;;5019652;27;98567;-64
2023/12/13 03:53:19;;;;;;;11.68;5.65;;;;;;;;;;5020532;28;100321;-64
2023/12/13 03:55:45;;;;;;;11.07;5.80;;;;;;;;;;5022958;27;99467;-64
2023/12/13 03:58:12;;;;;;;11.40;5.35;;;;;;;;;;5020384;28;99492;-64
2023/12/13 04:00:38;;;;;;;13.40;6.78;;;;;;;;;;5019939;27;100358;-64
2023/12/13 04:03:05;;;;;;;16.13;6.00;;;;;;;;;;5017123;28;98572;-64
2023/12/13 04:05:31;;;;;;;11.52;5.97;;;;;;;;;;5013007;28;100338;-64
2023/12/13 04:07:58;;;;;;;16.42;6.25;;;;;;;;;;5021583;28;100475;-64
2023/12/13 04:10:26;;;;;;;12.85;6.30;;;;;;;;;;5018771;27;99050;-64
2023/12/13 04:12:52;;;;;;;12.20;6.65;;;;;;;;;;5017841;27;100259;-64
2023/12/13 04:15:18;;;;;;;13.45;7.50;;;;;;;;;;5017068;27;99416;-64
2023/12/13 04:17:45;;;;;;;12.43;6.60;;;;;;;;;;5020961;27;97878;-64
2023/12/13 04:20:11;;;;;;;9.32;6.65;;;;;;;;;;5018824;27;99394;-64
2023/12/13 04:22:38;;;;;;;9.10;6.80;;;;;;;;;;5021783;28;98865;-64
2023/12/13 04:25:04;;;;;;;14.43;6.93;;;;;;;;;;5016964;28;99439;-64
2023/12/13 04:27:30;;;;;;;13.60;6.88;;;;;;;;;;5017743;28;100618;-64
2023/12/13 04:29:57;;;;;;;10.75;6.97;;;;;;;;;;5022541;28;98627;-64
2023/12/13 04:32:23;;;;;;;16.67;7.05;;;;;;;;;;5020605;28;98624;-64
2023/12/13 04:34:50;;;;;;;13.57;7.05;;;;;;;;;;5019411;27;99542;-64
2023/12/13 04:37:16;;;;;;;12.13;7.45;;;;;;;;;;5020385;28;98635;-64
2023/12/13 04:39:43;;;;;;;15.77;7.70;;;;;;;;;;5021127;28;100054;-64
2023/12/13 04:42:09;;;;;;;22.33;7.40;;;;;;;;;;5018126;28;97781;-64
2023/12/13 04:44:35;;;;;;;14.40;7.70;;;;;;;;;;5017718;28;98428;-64
2023/12/13 04:47:02;;;;;;;15.20;8.20;;;;;;;;;;5015674;27;99997;-64
2023/12/13 04:49:30;;;;;;;16.23;8.93;;;;;;;;;;5017575;27;99334;-64
2023/12/13 04:51:56;;;;;;;14.50;7.45;;;;;;;;;;5017008;28;99891;-64
2023/12/13 04:54:23;;;;;;;15.15;8.00;;;;;;;;;;5013937;28;99447;-64
2023/12/13 04:56:49;;;;;;;17.55;8.50;;;;;;;;;;5015317;27;98575;-64
2023/12/13 04:59:15;;;;;;;17.70;8.43;;;;;;;;;;5019321;28;100349;-64
2023/12/13 05:01:42;;;;;;;13.13;8.90;;;;;;;;;;5022688;27;99574;-63
2023/12/13 05:04:08;;;;;;;18.58;8.35;;;;;;;;;;5017091;28;99186;-64
2023/12/13 05:06:34;;;;;;;17.23;8.13;;;;;;;;;;5014286;28;98508;-63
2023/12/13 05:09:01;;;;;;;11.95;7.88;;;;;;;;;;5020659;28;98648;-63
2023/12/13 05:11:27;;;;;;;15.68;9.07;;;;;;;;;;5014277;28;100337;-63
2023/12/13 05:13:53;;;;;;;18.83;9.25;;;;;;;;;;5014201;28;100260;-64
2023/12/13 05:16:20;;;;;;;18.92;9.48;;;;;;;;;;5019034;28;98566;-63
2023/12/13 05:18:46;;;;;;;19.85;8.68;;;;;;;;;;5017577;28;99354;-64
2023/12/13 05:21:13;;;;;;;24.05;9.77;;;;;;;;;;5019896;28;99499;-63
2023/12/13 05:23:39;;;;;;;18.20;9.07;;;;;;;;;;5016165;27;99229;-63
2023/12/13 05:26:05;;;;;;;18.38;8.25;;;;;;;;;;5020491;27;99498;-63
2023/12/13 05:28:32;;;;;;;21.75;9.35;;;;;;;;;;5020087;28;98598;-63
2023/12/13 05:30:58;;;;;;;18.23;8.63;;;;;;;;;;5017508;28;99183;-64
2023/12/13 05:33:26;;;;;;;23.27;10.13;;;;;;;;;;5020895;28;100473;-64
2023/12/13 05:35:52;;;;;;;18.90;8.77;;;;;;;;;;5018486;28;98720;-63
2023/12/13 05:38:18;;;;;;;17.40;8.85;;;;;;;;;;5016023;28;99276;-64
2023/12/13 05:40:45;;;;;;;24.88;9.20;;;;;;;;;;5021160;27;99528;-63
2023/12/13 05:43:12;;;;;;;18.15;8.82;;;;;;;;;;5015931;28;98677;-63
2023/12/13 05:45:38;;;;;;;23.63;9.85;;;;;;;;;;5018743;27;99587;-64
2023/12/13 05:48:05;;;;;;;23.45;10.07;;;;;;;;;;5018345;28;98522;-63
2023/12/13 05:50:31;;;;;;;20.80;10.00;;;;;;;;;;5017724;27;99225;-64
2023/12/13 05:52:58;;;;;;;17.00;9.25;;;;;;;;;;5011820;27;99493;-64
2023/12/13 05:55:24;;;;;;;21.83;9.35;;;;;;;;;;5012286;28;97771;-63
2023/12/13 05:57:51;;;;;;;24.02;10.13;;;;;;;;;;5012464;28;98464;-64
2023/12/13 06:00:17;;;;;;;19.65;9.35;;;;;;;;;;5019590;28;100548;-63
2023/12/13 06:02:43;;;;;;;19.35;9.35;;;;;;;;;;5023200;28;99239;-64
2023/12/13 06:05:21;;;;;;;35.95;10.18;;;;;;;;;;5024651;28;100039;-64
2023/12/13 06:07:48;;;;;;;23.98;10.48;;;;;;;;;;5022163;28;98602;-64
2023/12/13 06:10:14;;;;;;;23.83;10.20;;;;;;;;;;5020001;27;99181;-64
2023/12/13 06:12:41;;;;;;;24.83;9.98;;;;;;;;;;5023367;27;99528;-64
2023/12/13 06:15:07;;;;;;;27.95;9.93;;;;;;;;;;5018758;28;98684;-64
2023/12/13 06:17:33;;;;;;;22.33;10.13;;;;;;;;;;5028642;28;99228;-64
2023/12/13 06:20:00;;;;;;;22.60;9.13;;;;;;;;;;5021646;27;99755;-64
2023/12/13 06:22:27;;;;;;;20.55;9.93;;;;;;;;;;5024565;27;98674;-64
2023/12/13 06:24:53;;;;;;;28.40;9.98;;;;;;;;;;5024202;28;99125;-64
2023/12/13 06:27:20;;;;;;;25.15;10.60;;;;;;;;;;5025045;28;100838;-64
2023/12/13 06:29:46;;;;;;;26.17;10.50;;;;;;;;;;5025417;27;99897;-64
2023/12/13 06:32:12;;;;;;;22.02;9.77;;;;;;;;;;5021856;28;99482;-64
2023/12/13 06:34:39;;;;;;;25.13;10.68;;;;;;;;;;5024037;28;98518;-64
2023/12/13 06:37:07;;;;;;;25.17;10.10;;;;;;;;;;5019839;28;99165;-64
2023/12/13 06:39:34;;;;;;;25.70;10.50;;;;;;;;;;5019831;27;100282;-64
2023/12/13 06:42:00;;;;;;;26.95;10.20;;;;;;;;;;5024083;28;98515;-64
2023/12/13 06:44:27;;;;;;;29.63;11.45;;;;;;;;;;5021928;28;100356;-64
2023/12/13 06:46:54;;;;;;;26.98;10.63;;;;;;;;;;5024071;27;99466;-64
2023/12/13 06:49:22;;;;;;;21.85;10.02;;;;;;;;;;5025272;27;98605;-64
2023/12/13 06:51:50;;;;;;;22.55;10.40;;;;;;;;;;5022712;28;100275;-64
2023/12/13 06:54:17;;;;;;;29.60;11.35;;;;;;;;;;5020269;27;98727;-64
2023/12/13 06:56:43;;;;;;;22.30;10.18;;;;;;;;;;5022993;27;100380;-64
2023/12/13 06:59:09;;;;;;;25.55;10.57;;;;;;;;;;5024064;28;100430;-64
2023/12/13 07:01:36;;;;;;;28.08;9.93;;;;;;;;;;5020255;27;98762;-64
2023/12/13 07:04:02;;;;;;;27.15;11.02;;;;;;;;;;5018190;27;99263;-64
2023/12/13 07:06:29;;;;;;;25.85;10.00;;;;;;;;;;5020372;27;99608;-64
2023/12/13 07:08:56;;;;;;;24.90;10.30;;;;;;;;;;5021520;27;99304;-64
2023/12/13 07:11:22;;;;;;;26.05;10.45;;;;;;;;;;5018579;27;98593;-64
2023/12/13 07:13:50;;;;;;;30.38;11.25;;;;;;;;;;5016037;27;98685;-64
2023/12/13 07:16:16;;;;;;;27.95;10.77;;;;;;;;;;5014668;28;99449;-64
2023/12/13 07:18:43;;;;;;;28.30;10.70;;;;;;;;;;5015741;28;99478;-63
2023/12/13 07:21:18;;;;;;;27.63;10.35;;;;;;;;;;5013411;28;98744;-64
2023/12/13 07:23:44;;;;;;;24.27;10.40;;;;;;;;;;5019842;27;99220;-63
2023/12/13 07:26:10;;;;;;;25.60;9.32;;;;;;;;;;5015061;27;99560;-63
2023/12/13 07:28:37;;;;;;;32.83;9.32;;;;;;;;;;5021419;28;98756;-63
2023/12/13 07:31:04;;;;;;;25.58;10.18;;;;;;;;;;5021003;28;99293;-63
2023/12/13 07:33:37;;;;;;;31.70;11.27;;;;;;;;;;5011860;28;97927;-63
2023/12/13 07:36:04;;;;;;;30.73;10.55;;;;;;;;;;5018073;28;98537;-63
2023/12/13 07:38:31;;;;;;;20.05;9.07;;;;;;;;;;5016281;27;99795;-63
2023/12/13 07:40:57;;;;;;;23.08;9.95;;;;;;;;;;5017237;28;99751;-63
2023/12/13 07:43:24;;;;;;;25.00;10.00;;;;;;;;;;5010685;27;100465;-64
2023/12/13 07:45:52;;;;;;;22.30;9.30;;;;;;;;;;5015869;28;99529;-64
2023/12/13 07:48:20;;;;;;;28.75;10.68;;;;;;;;;;5014536;28;98661;-64
2023/12/13 07:50:55;;;;;;;28.52;10.15;;;;;;;;;;5017492;27;99241;-64
2023/12/13 07:53:22;;;;;;;21.67;9.60;;;;;;;;;;5018135;28;99580;-64
2023/12/13 07:55:48;;;;;;;37.50;11.27;;;;;;;;;;5017579;28;100286;-64
2023/12/13 07:58:15;;;;;;;27.08;10.18;;;;;;;;;;5016026;28;98840;-64
2023/12/13 08:00:41;;;;;;;34.33;11.63;;;;;;;;;;5012928;27;98459;-64
2023/12/13 08:03:08;;;;;;;35.20;10.18;;;;;;;;;;5020087;27;99047;-63
2023/12/13 08:05:35;;;;;;;27.88;9.38;;;;;;;;;;5013182;27;101250;-64
2023/12/13 08:08:01;;;;;;;27.40;11.35;;;;;;;;;;5018541;28;98641;-64
2023/12/13 08:10:28;;;;;;;26.35;10.93;;;;;;;;;;5013753;28;100072;-64
2023/12/13 08:12:54;;;;;;;30.08;10.23;;;;;;;;;;5018705;28;99454;-64
2023/12/13 08:15:20;;;;;;;24.88;11.65;;;;;;;;;;5017081;28;98998;-64
2023/12/13 08:17:47;;;;;;;27.52;11.43;;;;;;;;;;5017146;28;99624;-64
2023/12/13 08:20:13;;;;;;;32.75;10.60;;;;;;;;;;5020302;27;98493;-64
2023/12/13 08:22:40;;;;;;;27.85;10.88;;;;;;;;;;5013939;27;99147;-64
2023/12/13 08:25:06;;;;;;;38.05;11.63;;;;;;;;;;5015803;28;101142;-64
2023/12/13 08:27:33;;;;;;;29.35;10.13;;;;;;;;;;5019383;28;98442;-64
2023/12/13 08:30:00;;;;;;;32.85;10.85;;;;;;;;;;5010359;28;99237;-65
2023/12/13 08:32:27;;;;;;;25.45;9.90;;;;;;;;;;5019149;27;100965;-64
2023/12/13 08:34:54;;;;;;;35.55;11.45;;;;;;;;;;5019004;28;98665;-64
2023/12/13 08:37:21;;;;;;;31.05;10.30;;;;;;;;;;5020807;27;99264;-64
2023/12/13 08:39:49;;;;;;;30.10;10.20;;;;;;;;;;5015802;27;98576;-65
2023/12/13 08:42:15;;;;;;;27.52;10.35;;;;;;;;;;5019873;27;99519;-64
2023/12/13 08:44:43;;;;;;;24.05;9.93;;;;;;;;;;5013570;28;99484;-65
2023/12/13 08:47:09;;;;;;;19.70;9.93;;;;;;;;;;5014842;28;97846;-64
2023/12/13 08:49:36;;;;;;;29.60;10.05;;;;;;;;;;5012219;28;98634;-64
2023/12/13 08:52:02;;;;;;;28.40;9.88;;;;;;;;;;5006692;28;99837;-65
2023/12/13 08:54:28;;;;;;;26.35;10.40;;;;;;;;;;5017174;28;99330;-65
2023/12/13 08:56:55;;;;;;;28.92;11.18;;;;;;;;;;5017306;27;99854;-65
2023/12/13 08:59:21;;;;;;;22.60;10.48;;;;;;;;;;5022110;27;99617;-65
2023/12/13 09:01:49;;;;;;;25.50;9.63;;;;;;;;;;5014336;28;99134;-65
2023/12/13 09:04:15;;;;;;;30.05;10.00;;;;;;;;;;5020287;28;100693;-65
2023/12/13 09:06:42;;;;;;;30.67;11.07;;;;;;;;;;5015408;28;98750;-65
2023/12/13 09:09:11;;;;;;;31.77;10.52;;;;;;;;;;5018220;27;99125;-65
2023/12/13 09:11:37;;;;;;;32.72;10.95;;;;;;;;;;5020109;27;100270;-65
2023/12/13 09:14:04;;;;;;;25.63;10.30;;;;;;;;;;5016012;27;99295;-65
2023/12/13 09:16:30;;;;;;;23.50;10.13;;;;;;;;;;5017341;27;100257;-65
2023/12/13 09:18:56;;;;;;;25.98;10.63;;;;;;;;;;5014773;27;101202;-65
2023/12/13 09:21:24;;;;;;;21.95;11.00;;;;;;;;;;5022652;27;98461;-65
2023/12/13 09:23:50;;;;;;;24.92;10.68;;;;;;;;;;5018656;28;99528;-65
2023/12/13 09:26:16;;;;;;;28.38;10.65;;;;;;;;;;5014605;27;98711;-65
2023/12/13 09:28:43;;;;;;;28.70;10.20;;;;;;;;;;5012289;27;100270;-64
2023/12/13 09:31:10;;;;;;;32.20;11.30;;;;;;;;;;5015784;27;99654;-64
2023/12/13 09:33:37;;;;;;;27.63;11.05;;;;;;;;;;5017017;27;98536;-64
2023/12/13 09:36:03;;;;;;;30.45;10.63;;;;;;;;;;5015917;28;99323;-65
2023/12/13 09:38:30;;;;;;;33.42;12.13;;;;;;;;;;5017976;28;100537;-65
2023/12/13 09:40:56;;;;;;;37.97;12.88;;;;;;;;;;5018788;27;98685;-65
2023/12/13 09:43:23;;;;;;;36.88;12.32;;;;;;;;;;5018082;27;100130;-65
2023/12/13 09:45:50;;;;;;;23.95;11.00;;;;;;;;;;5012816;28;98465;-65
2023/12/13 09:48:21;;;;;;;27.80;11.90;;;;;;;;;;5016027;27;99195;-65
2023/12/13 09:50:51;;;;;;;26.73;10.50;;;;;;;;;;5018324;28;100477;-65
2023/12/13 09:53:19;;;;;;;23.85;10.07;;;;;;;;;;5008612;28;98622;-65
2023/12/13 09:55:46;;;;;;;22.60;9.93;;;;;;;;;;5012059;28;99190;-65
2023/12/13 09:58:12;;;;;;;27.45;9.57;;;;;;;;;;5016547;27;99439;-65
2023/12/13 10:00:41;;;;;;;20.98;9.90;;;;;;;;;;5006347;28;97814;-65
2023/12/13 10:03:07;;;;;;;25.85;8.68;;;;;;;;;;5017369;28;99004;-65
2023/12/13 10:05:36;;;;;;;16.10;8.85;;;;;;;;;;5016984;28;98775;-65
2023/12/13 10:08:04;;;;;;;16.85;8.90;;;;;;;;;;5015257;28;99651;-65
2023/12/13 10:10:31;;;;;;;21.45;9.15;;;;;;;;;;5005839;28;100419;-65
2023/12/13 10:12:59;;;;;;;17.38;8.88;;;;;;;;;;5010128;28;98646;-65
2023/12/13 10:15:28;;;;;;;20.38;9.57;;;;;;;;;;5015169;28;99249;-65
2023/12/13 10:17:54;;;;;;;17.70;9.93;;;;;;;;;;5019011;28;99398;-69
2023/12/13 10:20:21;;;;;;;20.25;9.90;;;;;;;;;;5016086;28;98498;-66
2023/12/13 10:22:48;;;;;;;18.98;9.63;;;;;;;;;;5009914;28;99219;-67
2023/12/13 10:25:14;;;;;;;16.58;9.82;;;;;;;;;;5013321;28;99915;-65
2023/12/13 10:27:42;;;;;;;18.60;9.98;;;;;;;;;;5008979;28;98619;-67
2023/12/13 10:30:10;;;;;;;21.48;9.77;;;;;;;;;;5016346;28;99393;-68
2023/12/13 10:32:37;;;;;;;19.85;10.00;;;;;;;;;;5014280;28;99561;-66
2023/12/13 10:35:05;;;;;;;18.35;9.98;;;;;;;;;;5008480;28;101024;-66
2023/12/13 10:37:33;;;;;;;18.25;10.55;;;;;;;;;;5014953;28;99328;-66
2023/12/13 10:40:00;;;;;;;26.15;10.82;;;;;;;;;;5015904;27;99057;-69
2023/12/13 10:42:28;;;;;;;19.92;10.90;;;;;;;;;;5005160;28;99024;-65
2023/12/13 10:44:55;;;;;;;21.73;11.07;;;;;;;;;;5015161;28;100507;-65
2023/12/13 10:47:25;;;;;;;19.92;11.57;;;;;;;;;;5016343;28;98547;-65
2023/12/13 10:49:54;;;;;;;20.63;10.70;;;;;;;;;;5014934;28;98776;-65
2023/12/13 10:52:21;;;;;;;23.73;12.25;;;;;;;;;;5015384;28;98864;-65
2023/12/13 10:54:48;;;;;;;22.02;11.65;;;;;;;;;;5020369;27;99183;-65
2023/12/13 10:57:15;;;;;;;27.98;12.88;;;;;;;;;;5015636;27;100220;-65
2023/12/13 10:59:41;;;;;;;27.30;12.57;;;;;;;;;;5020498;27;98529;-65
2023/12/13 11:02:09;;;;;;;25.95;12.10;;;;;;;;;;5013391;27;100649;-65
2023/12/13 11:04:37;;;;;;;30.70;13.05;;;;;;;;;;5019426;28;99639;-65
2023/12/13 11:07:04;;;;;;;27.20;12.63;;;;;;;;;;5019886;27;99133;-65
2023/12/13 11:09:36;;;;;;;24.58;12.38;;;;;;;;;;5021385;28;100234;-65
2023/12/13 11:12:09;;;;;;;29.05;14.30;;;;;;;;;;5016060;27;99942;-65
2023/12/13 11:14:35;;;;;;;31.65;13.90;;;;;;;;;;5018912;27;99129;-65
2023/12/13 11:17:03;;;;;;;24.63;12.15;;;;;;;;;;5020065;27;99547;-65
2023/12/13 11:19:29;;;;;;;25.67;12.50;;;;;;;;;;5019776;28;98545;-65
2023/12/13 11:21:56;;;;;;;35.63;13.27;;;;;;;;;;5018371;28;99353;-65
2023/12/13 11:24:25;;;;;;;25.60;13.02;;;;;;;;;;5011437;28;99477;-65
2023/12/13 11:26:53;;;;;;;27.45;13.32;;;;;;;;;;5012757;28;98567;-65
2023/12/13 11:29:20;;;;;;;27.98;13.30;;;;;;;;;;5023770;28;100295;-65
2023/12/13 11:32:05;;;;;;;28.00;13.20;;;;;;;;;;5021174;27;98609;-65
2023/12/13 11:34:32;;;;;;;22.10;12.20;;;;;;;;;;5012981;28;100237;-65
2023/12/13 11:36:59;;;;;;;23.52;13.13;;;;;;;;;;5015945;28;99696;-65
2023/12/13 11:39:26;;;;;;;24.08;12.30;;;;;;;;;;5021833;27;97795;-65
2023/12/13 11:41:53;;;;;;;26.70;12.77;;;;;;;;;;5014606;28;99520;-65
2023/12/13 11:44:19;;;;;;;26.70;12.48;;;;;;;;;;5016924;27;99681;-65
2023/12/13 11:46:52;;;;;;;28.15;12.38;;;;;;;;;;5019131;27;99240;-65
2023/12/13 11:49:20;;;;;;;26.42;12.40;;;;;;;;;;5019408;28;100324;-65
2023/12/13 11:51:47;;;;;;;26.27;13.45;;;;;;;;;;5021036;27;99558;-65
2023/12/13 11:54:16;;;;;;;27.60;12.60;;;;;;;;;;5017406;27;99204;-64
2023/12/13 11:56:43;;;;;;;29.30;13.35;;;;;;;;;;5017243;27;100114;-64
2023/12/13 11:59:10;;;;;;;20.20;11.80;;;;;;;;;;5016512;27;98593;-64
2023/12/13 12:01:36;;;;;;;30.10;12.48;;;;;;;;;;5013919;27;99222;-63
2023/12/13 12:04:03;;;;;;;21.80;12.00;;;;;;;;;;5017083;28;98827;-64
2023/12/13 12:06:29;;;;;;;28.23;13.65;;;;;;;;;;5016108;28;98646;-64
2023/12/13 12:08:58;;;;;;;20.60;12.02;;;;;;;;;;5017434;27;99279;-63
2023/12/13 12:11:25;;;;;;;27.13;12.95;;;;;;;;;;5015883;28;100131;-64
2023/12/13 12:13:52;;;;;;;23.50;13.60;;;;;;;;;;5017468;27;98587;-64
2023/12/13 12:16:19;;;;;;;27.73;14.55;;;;;;;;;;5018661;28;100328;-64
2023/12/13 12:18:46;;;;;;;25.38;14.55;;;;;;;;;;5015119;27;98531;-64
2023/12/13 12:21:12;;;;;;;29.52;13.73;;;;;;;;;;5016774;28;100563;-64
2023/12/13 12:23:39;;;;;;;28.67;14.23;;;;;;;;;;5010966;28;100385;-64
2023/12/13 12:26:10;;;;;;;36.85;13.52;;;;;;;;;;5019995;27;98707;-64
2023/12/13 12:28:38;;;;;;;24.95;14.13;;;;;;;;;;5017291;27;99362;-64
2023/12/13 12:31:04;;;;;;;23.55;13.35;;;;;;;;;;5019034;27;99803;-64
2023/12/13 12:33:31;;;;;;;31.48;12.98;;;;;;;;;;5016371;28;99606;-64
2023/12/13 12:35:57;;;;;;;25.77;13.88;;;;;;;;;;5018948;27;99362;-63
2023/12/13 12:38:24;;;;;;;22.33;14.05;;;;;;;;;;5020141;27;98620;-64
2023/12/13 12:40:51;;;;;;;25.15;12.60;;;;;;;;;;5019312;27;99348;-63
2023/12/13 12:43:17;;;;;;;38.30;22.00;;;;;;;;;;5013703;27;99635;-64
2023/12/13 12:45:44;;;;;;;33.90;16.15;;;;;;;;;;5017022;28;98572;-64
2023/12/13 12:48:12;;;;;;;26.98;12.68;;;;;;;;;;5017714;28;99218;-64
2023/12/13 12:50:38;;;;;;;23.77;12.15;;;;;;;;;;5015790;27;99461;-64
2023/12/13 12:53:05;;;;;;;25.88;11.55;;;;;;;;;;5017737;27;97821;-64
2023/12/13 12:55:31;;;;;;;27.52;13.13;;;;;;;;;;5008584;28;101199;-64
2023/12/13 12:57:58;;;;;;;18.30;12.23;;;;;;;;;;5016363;28;99540;-64
2023/12/13 13:00:25;;;;;;;30.83;12.90;;;;;;;;;;5016235;28;99388;-64
2023/12/13 13:02:54;;;;;;;24.77;13.02;;;;;;;;;;5010472;28;99498;-66
2023/12/13 13:05:20;;;;;;;22.38;12.27;;;;;;;;;;5021127;27;98554;-65
2023/12/13 13:07:47;;;;;;;28.08;12.43;;;;;;;;;;5018182;28;99150;-66
2023/12/13 13:10:13;;;;;;;24.90;13.15;;;;;;;;;;5018429;27;99333;-65
2023/12/13 13:12:40;;;;;;;26.13;13.95;;;;;;;;;;5017138;28;98999;-65
2023/12/13 13:15:07;;;;;;;30.40;14.70;;;;;;;;;;5016586;28;99183;-65
2023/12/13 13:17:33;;;;;;;30.88;16.13;;;;;;;;;;5020309;27;98706;-65
2023/12/13 13:20:03;;;;;;;29.75;16.25;;;;;;;;;;5020024;28;98757;-66
2023/12/13 13:22:30;;;;;;;33.43;17.00;;;;;;;;;;5010451;28;99707;-65
2023/12/13 13:24:56;;;;;;;22.50;13.52;;;;;;;;;;5019228;27;99427;-65
2023/12/13 13:27:23;;;;;;;25.70;13.00;;;;;;;;;;5015827;27;101033;-65
2023/12/13 13:29:54;;;;;;;27.85;13.30;;;;;;;;;;5012571;27;99704;-65
2023/12/13 13:32:21;;;;;;;23.67;13.27;;;;;;;;;;5017732;28;98541;-65
2023/12/13 13:34:47;;;;;;;24.48;14.18;;;;;;;;;;5015880;28;99575;-65
2023/12/13 13:37:14;;;;;;;26.35;12.45;;;;;;;;;;5015722;28;99175;-65
2023/12/13 13:39:40;;;;;;;19.08;12.98;;;;;;;;;;5020986;27;98653;-65
2023/12/13 13:42:08;;;;;;;27.58;14.32;;;;;;;;;;5016912;28;99781;-66
2023/12/13 13:44:38;;;;;;;26.52;13.13;;;;;;;;;;5016123;28;98635;-65
2023/12/13 13:47:05;;;;;;;25.73;12.73;;;;;;;;;;5012481;28;99190;-66
2023/12/13 13:49:31;;;;;;;29.83;14.25;;;;;;;;;;5011967;28;101346;-66
2023/12/13 13:51:58;;;;;;;23.80;14.02;;;;;;;;;;5015048;28;98733;-66
2023/12/13 13:54:24;;;;;;;25.55;13.70;;;;;;;;;;5018812;28;100286;-65
2023/12/13 13:56:50;;;;;;;28.83;14.10;;;;;;;;;;5013354;27;99486;-66
2023/12/13 13:59:16;;;;;;;23.50;14.02;;;;;;;;;;5015977;28;98578;-65
2023/12/13 14:01:43;;;;;;;26.55;13.52;;;;;;;;;;5018446;27;99240;-65
2023/12/13 14:04:09;;;;;;;30.35;13.68;;;;;;;;;;5016234;28;98588;-65
2023/12/13 14:06:36;;;;;;;23.55;13.65;;;;;;;;;;5012321;28;100382;-65
2023/12/13 14:09:03;;;;;;;28.27;13.45;;;;;;;;;;5005784;28;99396;-65
2023/12/13 14:11:30;;;;;;;29.65;13.50;;;;;;;;;;5014045;28;100208;-66
2023/12/13 14:13:56;;;;;;;23.33;12.65;;;;;;;;;;5015192;27;99386;-64
2023/12/13 14:16:23;;;;;;;25.38;12.10;;;;;;;;;;5017710;28;100702;-66
2023/12/13 14:18:49;;;;;;;24.38;13.02;;;;;;;;;;5014140;28;98543;-66
2023/12/13 14:21:15;;;;;;;27.50;13.05;;;;;;;;;;5018979;27;100004;-64